Time;durP1;ratioP1;P1;durP2;ratioP2;P2;SDS_P1;SDS_P2;PMS_P1;PMS_P2;Temp;Humidity;BMP_temperature;BMP_pressure;BME280_temperature;BME280_humidity;BME280_pressure;Samples;Min_cycle;Max_cycle;Signal;HPM_P1;HPM_P2
2021/07/30 00:01:36;;;;;;;1.90;1.80;;;;;;;22.87;100.00;97153.13;4960540;28;20226;-72
2021/07/30 00:04:03;;;;;;;2.20;2.10;;;;;;;22.89;100.00;97160.84;4968602;28;20587;-72
2021/07/30 00:06:30;;;;;;;2.40;2.20;;;;;;;22.46;100.00;97092.56;4966815;28;20297;-75
2021/07/30 00:08:56;;;;;;;2.10;2.00;;;;;;;21.89;100.00;97000.97;4973346;28;20650;-74
2021/07/30 00:11:23;;;;;;;2.20;2.00;;;;;;;22.82;100.00;97159.00;4967999;28;20239;-72
2021/07/30 00:13:50;;;;;;;2.80;2.07;;;;;;;22.88;100.00;97162.53;4978437;28;20298;-70
2021/07/30 00:16:16;;;;;;;2.60;2.40;;;;;;;22.89;100.00;97156.56;4968741;28;20231;-70
2021/07/30 00:18:43;;;;;;;2.57;2.37;;;;;;;22.88;100.00;97157.41;4968343;28;20210;-73
2021/07/30 00:21:09;;;;;;;2.10;1.90;;;;;;;22.84;100.00;97144.53;4968806;28;20322;-73
2021/07/30 00:23:36;;;;;;;2.27;2.13;;;;;;;22.57;100.00;97108.16;4968635;28;20243;-74
2021/07/30 00:26:03;;;;;;;2.10;2.00;;;;;;;22.02;100.00;97015.75;4968763;28;20294;-69
2021/07/30 00:28:29;;;;;;;2.10;2.00;;;;;;;22.82;100.00;97164.13;4966595;28;20255;-70
2021/07/30 00:30:56;;;;;;;1.90;1.80;;;;;;;22.88;100.00;97164.22;4969001;28;20228;-70
2021/07/30 00:33:23;;;;;;;1.80;1.70;;;;;;;22.88;100.00;97174.47;4979800;28;20254;-70
2021/07/30 00:35:49;;;;;;;2.00;1.90;;;;;;;22.87;100.00;97170.19;4981594;28;20212;-72
2021/07/30 00:38:16;;;;;;;2.20;2.10;;;;;;;22.87;100.00;97167.63;4968201;28;20231;-70
2021/07/30 00:40:42;;;;;;;2.67;2.30;;;;;;;22.88;100.00;97169.34;4977595;28;20255;-72
2021/07/30 00:43:09;;;;;;;2.43;2.20;;;;;;;22.84;100.00;97154.75;4968663;28;20199;-71
2021/07/30 00:45:36;;;;;;;3.77;2.10;;;;;;;22.87;100.00;97165.06;4968162;28;20665;-70
2021/07/30 00:48:02;;;;;;;2.40;2.20;;;;;;;22.71;100.00;97140.03;4960833;28;20235;-72
2021/07/30 00:50:29;;;;;;;2.30;2.10;;;;;;;22.82;100.00;97165.00;4962096;28;20207;-74
2021/07/30 00:52:56;;;;;;;2.00;1.90;;;;;;;22.70;100.00;97140.81;4980963;28;20231;-70
2021/07/30 00:55:22;;;;;;;1.90;1.80;;;;;;;22.08;100.00;97044.03;4967319;28;20646;-71
2021/07/30 00:57:49;;;;;;;2.40;2.20;;;;;;;22.72;100.00;97162.22;4969396;28;20238;-70
2021/07/30 01:00:16;;;;;;;2.07;1.97;;;;;;;22.67;100.00;97141.66;4956330;28;20203;-74
2021/07/30 01:02:42;;;;;;;3.50;1.90;;;;;;;22.87;100.00;97171.06;4964360;28;20290;-72
2021/07/30 01:05:09;;;;;;;2.00;1.90;;;;;;;21.76;100.00;96981.13;4971414;28;20214;-69
2021/07/30 01:07:36;;;;;;;2.40;2.10;;;;;;;22.84;100.00;97165.03;4978677;28;20590;-74
2021/07/30 01:10:03;;;;;;;2.10;2.00;;;;;;;22.83;100.00;97161.59;4971191;28;20258;-74
2021/07/30 01:12:29;;;;;;;2.40;2.20;;;;;;;22.56;100.00;97106.44;4970170;28;20687;-70
2021/07/30 01:14:57;;;;;;;2.17;1.97;;;;;;;22.87;100.00;97163.38;4982913;28;20239;-72
2021/07/30 01:17:26;;;;;;;2.00;1.90;;;;;;;21.98;100.00;97019.94;4970626;28;20212;-70
2021/07/30 01:19:53;;;;;;;2.20;2.10;;;;;;;22.80;100.00;97161.53;4970648;28;20288;-74
2021/07/30 01:22:22;;;;;;;2.47;2.30;;;;;;;22.86;100.00;97169.31;4961410;28;20310;-69
2021/07/30 01:24:50;;;;;;;2.33;2.17;;;;;;;22.60;100.00;97141.50;4968242;28;20689;-72
2021/07/30 01:27:16;;;;;;;2.10;2.00;;;;;;;22.88;100.00;97172.78;4964172;28;20231;-71
2021/07/30 01:29:43;;;;;;;1.97;1.80;;;;;;;21.54;100.00;96944.88;4970673;28;20318;-69
2021/07/30 01:32:10;;;;;;;2.27;2.07;;;;;;;22.88;100.00;97170.22;4965698;28;20326;-73
2021/07/30 01:34:36;;;;;;;2.20;2.10;;;;;;;22.79;100.00;97157.25;4983968;28;20231;-70
2021/07/30 01:37:03;;;;;;;2.20;2.10;;;;;;;21.90;100.00;97015.53;4982621;28;20208;-69
2021/07/30 01:39:30;;;;;;;2.30;2.10;;;;;;;22.89;100.00;97171.09;4961496;28;20235;-71
2021/07/30 01:41:56;;;;;;;2.70;2.27;;;;;;;22.88;100.00;97167.66;4963512;28;20709;-73
2021/07/30 01:44:23;;;;;;;2.67;2.00;;;;;;;22.80;100.00;97158.13;4964699;28;20235;-70
2021/07/30 01:46:50;;;;;;;2.77;2.47;;;;;;;22.89;100.00;97171.09;4981614;28;20289;-70
2021/07/30 01:49:16;;;;;;;2.37;2.17;;;;;;;22.87;100.00;97177.88;4980103;28;20306;-76
2021/07/30 01:51:43;;;;;;;2.17;2.07;;;;;;;22.35;100.00;97099.16;4981848;28;20223;-71
2021/07/30 01:54:10;;;;;;;2.10;2.00;;;;;;;22.51;100.00;97114.03;4970547;28;20203;-71
2021/07/30 01:56:37;;;;;;;2.30;2.20;;;;;;;22.74;100.00;97151.16;4967640;28;20284;-72
2021/07/30 01:59:03;;;;;;;2.50;2.30;;;;;;;22.64;100.00;97136.47;4970537;28;20227;-76
2021/07/30 02:01:30;;;;;;;2.20;2.10;;;;;;;22.02;100.00;97023.44;4969125;28;20288;-72
2021/07/30 02:03:59;;;;;;;2.10;2.00;;;;;;;22.78;100.00;97159.78;4975687;28;20208;-71
2021/07/30 02:06:25;;;;;;;2.00;1.90;;;;;;;22.88;100.00;97177.03;4964174;28;20248;-67
2021/07/30 02:08:52;;;;;;;2.20;2.00;;;;;;;22.53;100.00;97135.38;4948734;28;20779;-76
2021/07/30 02:11:18;;;;;;;2.27;2.07;;;;;;;22.43;100.00;97104.44;5035368;22;20236;-68
2021/07/30 02:16:30;;;;;;;2.27;2.17;;;;;;;22.87;100.00;97183.00;5026215;28;20209;-70
2021/07/30 02:18:57;;;;;;;2.70;2.23;;;;;;;22.87;100.00;97183.00;5025268;28;20204;-67
2021/07/30 02:21:23;;;;;;;2.53;2.33;;;;;;;22.83;100.00;97176.94;5026725;28;20261;-68
2021/07/30 02:23:50;;;;;;;2.20;2.10;;;;;;;22.87;100.00;97177.88;5011583;28;20240;-67
2021/07/30 02:26:16;;;;;;;2.20;2.10;;;;;;;22.87;100.00;97177.88;5018688;28;20408;-68
2021/07/30 02:28:43;;;;;;;2.47;2.27;;;;;;;22.87;100.00;97183.00;5017620;28;20320;-67
2021/07/30 02:31:10;;;;;;;2.40;2.20;;;;;;;22.86;100.00;97187.25;5004115;28;20288;-68
2021/07/30 02:33:37;;;;;;;2.23;2.13;;;;;;;22.87;100.00;97183.00;5014245;28;20580;-69
2021/07/30 02:36:04;;;;;;;2.47;2.27;;;;;;;22.29;100.00;97082.84;5011247;28;20309;-69
2021/07/30 02:38:30;;;;;;;2.17;2.07;;;;;;;22.81;100.00;97168.41;5016977;28;20290;-67
2021/07/30 02:40:57;;;;;;;2.87;2.03;;;;;;;22.87;100.00;97183.00;5010758;28;20206;-68
2021/07/30 02:43:23;;;;;;;2.40;2.20;;;;;;;22.31;100.00;97091.38;5014856;28;20329;-67
2021/07/30 02:45:50;;;;;;;4.80;2.40;;;;;;;22.76;100.00;97170.00;5011847;28;20668;-68
2021/07/30 02:48:17;;;;;;;2.13;2.03;;;;;;;22.87;100.00;97195.81;5019759;28;20769;-67
2021/07/30 02:50:43;;;;;;;2.20;2.10;;;;;;;22.21;100.00;97089.50;5011551;28;20284;-67
2021/07/30 02:53:10;;;;;;;2.30;2.10;;;;;;;22.86;100.00;97182.13;5015901;28;20268;-68
2021/07/30 02:55:36;;;;;;;3.17;2.37;;;;;;;22.86;100.00;97187.25;5016635;28;20233;-70
2021/07/30 02:58:03;;;;;;;2.43;2.23;;;;;;;22.86;100.00;97181.28;5013710;28;20634;-68
2021/07/30 03:00:30;;;;;;;2.40;2.20;;;;;;;22.86;100.00;97179.56;5013311;28;20230;-66
2021/07/30 03:02:56;;;;;;;2.30;2.10;;;;;;;22.42;100.00;97113.81;5017918;28;20269;-67
2021/07/30 03:05:23;;;;;;;2.50;2.30;;;;;;;22.85;100.00;97188.09;5015240;28;20216;-70
2021/07/30 03:07:49;;;;;;;2.37;2.17;;;;;;;22.85;100.00;97177.84;5018338;28;20289;-68
2021/07/30 03:10:16;;;;;;;2.43;2.23;;;;;;;22.51;100.00;97125.97;5011457;28;20309;-67
2021/07/30 03:12:43;;;;;;;2.40;2.20;;;;;;;22.85;100.00;97180.41;5012071;28;20257;-67
2021/07/30 03:15:10;;;;;;;2.80;2.20;;;;;;;21.67;100.00;96997.97;5017194;28;20288;-66
2021/07/30 03:17:36;;;;;;;2.50;2.30;;;;;;;22.85;100.00;97188.09;5005466;28;20293;-68
2021/07/30 03:20:05;;;;;;;2.50;2.30;;;;;;;22.85;100.00;97187.22;5020048;28;20241;-68
2021/07/30 03:22:35;;;;;;;2.40;2.20;;;;;;;22.86;100.00;97173.59;5010537;28;20222;-67
2021/07/30 03:25:02;;;;;;;2.40;2.20;;;;;;;21.77;100.00;96988.81;5010086;28;20689;-67
2021/07/30 03:27:28;;;;;;;2.70;2.40;;;;;;;22.67;100.00;97144.22;5014475;28;20736;-70
2021/07/30 03:29:55;;;;;;;2.00;1.90;;;;;;;22.84;100.00;97178.69;5014370;28;20218;-67
2021/07/30 03:32:21;;;;;;;2.10;2.00;;;;;;;22.85;100.00;97174.41;5018145;28;20230;-69
2021/07/30 03:34:48;;;;;;;2.10;2.00;;;;;;;22.85;100.00;97176.97;5017098;28;20198;-67
2021/07/30 03:37:15;;;;;;;2.43;2.23;;;;;;;22.85;100.00;97176.97;5007877;28;20212;-67
2021/07/30 03:39:41;;;;;;;2.13;2.03;;;;;;;22.85;100.00;97180.41;5015157;28;20230;-69
2021/07/30 03:42:08;;;;;;;2.27;2.07;;;;;;;22.86;100.00;97176.16;5010449;28;20252;-68
2021/07/30 03:44:35;;;;;;;2.27;2.07;;;;;;;22.85;100.00;97176.97;5015272;28;20304;-65
2021/07/30 03:47:02;;;;;;;2.10;2.00;;;;;;;22.84;100.00;97171.03;5016840;28;20262;-67
2021/07/30 03:49:29;;;;;;;2.20;2.10;;;;;;;22.84;100.00;97173.56;5014094;28;20646;-67
2021/07/30 03:51:55;;;;;;;2.47;2.27;;;;;;;22.85;100.00;97172.72;5013505;28;20719;-67
2021/07/30 03:54:22;;;;;;;2.43;2.13;;;;;;;22.85;100.00;97164.16;5016864;28;20727;-69
2021/07/30 03:56:48;;;;;;;2.50;2.30;;;;;;;22.83;100.00;97165.88;5015161;28;20755;-69
2021/07/30 03:59:15;;;;;;;2.50;2.30;;;;;;;22.84;100.00;97163.31;5019769;28;20285;-67
2021/07/30 04:01:48;;;;;;;2.33;2.13;;;;;;;22.85;100.00;97170.16;5013114;28;20221;-67
2021/07/30 04:04:15;;;;;;;2.77;2.30;;;;;;;22.85;100.00;97165.03;5019067;28;20205;-68
2021/07/30 04:06:44;;;;;;;2.70;2.50;;;;;;;22.85;100.00;97170.16;5016770;28;20225;-68
2021/07/30 04:09:14;;;;;;;2.30;2.10;;;;;;;22.79;100.00;97159.81;5011085;28;20646;-70
2021/07/30 04:11:41;;;;;;;2.40;2.20;;;;;;;22.86;100.00;97166.75;4996429;28;20324;-67
2021/07/30 04:14:08;;;;;;;2.40;2.20;;;;;;;22.46;100.00;97089.13;5005118;28;20316;-69
2021/07/30 04:16:35;;;;;;;2.57;2.20;;;;;;;22.86;100.00;97159.06;5008004;28;20205;-66
2021/07/30 04:19:02;;;;;;;3.20;2.70;;;;;;;22.83;100.00;97160.75;5013647;28;20207;-68
2021/07/30 04:21:29;;;;;;;2.27;2.10;;;;;;;22.86;100.00;97161.63;5007922;28;20253;-67
2021/07/30 04:23:55;;;;;;;2.60;2.23;;;;;;;21.86;100.00;96983.03;5009800;28;20244;-68
2021/07/30 04:26:22;;;;;;;2.23;2.03;;;;;;;22.87;100.00;97152.25;4989385;28;20691;-69
2021/07/30 04:28:49;;;;;;;2.47;2.27;;;;;;;22.87;100.00;97159.94;5015251;28;20528;-69
2021/07/30 04:31:15;;;;;;;2.23;1.97;;;;;;;22.87;100.00;97165.06;5016704;28;20320;-67
2021/07/30 04:33:42;;;;;;;2.43;2.10;;;;;;;22.86;100.00;97153.94;5012800;28;20292;-67
2021/07/30 04:36:17;;;;;;;2.10;2.00;;;;;;;22.87;100.00;97158.25;5018462;28;20313;-68
2021/07/30 04:38:44;;;;;;;2.70;2.50;;;;;;;22.52;100.00;97104.63;5018207;28;20295;-67
2021/07/30 04:41:11;;;;;;;2.50;2.30;;;;;;;22.87;100.00;97160.81;5019424;28;20723;-68
2021/07/30 04:43:37;;;;;;;2.33;2.13;;;;;;;22.87;100.00;97160.81;5019836;28;20237;-68
2021/07/30 04:46:04;;;;;;;2.23;2.13;;;;;;;22.15;100.00;97033.94;4998520;28;20241;-67
2021/07/30 04:48:31;;;;;;;2.50;2.30;;;;;;;22.87;100.00;97150.56;5014531;28;20333;-64
2021/07/30 04:51:00;;;;;;;2.50;2.30;;;;;;;22.87;100.00;97154.81;5009089;28;20714;-70
2021/07/30 04:53:27;;;;;;;2.40;2.20;;;;;;;22.86;100.00;97156.50;5020355;28;20742;-67
2021/07/30 04:55:53;;;;;;;2.53;2.33;;;;;;;21.86;100.00;96975.34;5017044;28;20264;-68
2021/07/30 04:58:20;;;;;;;2.33;2.13;;;;;;;22.88;100.00;97152.28;5012946;28;20269;-67
2021/07/30 05:00:47;;;;;;;3.40;2.00;;;;;;;22.89;100.00;97153.16;5018583;28;20234;-69
2021/07/30 05:03:14;;;;;;;2.10;2.00;;;;;;;22.88;100.00;97152.28;5015522;28;20230;-67
2021/07/30 05:05:40;;;;;;;2.50;2.30;;;;;;;22.88;100.00;97151.41;5022899;28;20228;-67
2021/07/30 05:08:07;;;;;;;2.63;2.43;;;;;;;22.88;100.00;97149.72;5015055;28;20759;-67
2021/07/30 05:10:34;;;;;;;2.40;2.20;;;;;;;22.89;100.00;97148.88;5018570;28;20317;-68
2021/07/30 05:13:00;;;;;;;2.30;2.10;;;;;;;22.77;100.00;97140.97;5014971;28;20433;-67
2021/07/30 05:15:27;;;;;;;2.20;2.10;;;;;;;22.87;100.00;97153.13;5014577;28;20620;-67
2021/07/30 05:17:53;;;;;;;2.10;2.00;;;;;;;22.78;100.00;97136.72;5013980;28;20309;-69
2021/07/30 05:20:20;;;;;;;2.10;2.00;;;;;;;22.89;100.00;97163.41;5009202;28;20297;-67
2021/07/30 05:22:46;;;;;;;2.37;2.10;;;;;;;22.88;100.00;97164.22;5009369;28;20305;-67
2021/07/30 05:25:14;;;;;;;2.23;2.10;;;;;;;22.88;100.00;97159.09;5016514;28;20233;-67
2021/07/30 05:27:40;;;;;;;2.60;2.40;;;;;;;22.87;100.00;97165.94;5017762;28;20244;-68
2021/07/30 05:30:07;;;;;;;2.30;2.10;;;;;;;22.88;100.00;97169.34;5016134;28;20226;-68
2021/07/30 05:32:34;;;;;;;2.40;2.20;;;;;;;22.88;100.00;97172.78;5011084;28;20255;-67
2021/07/30 05:35:01;;;;;;;2.33;2.17;;;;;;;22.89;100.00;97163.41;5014377;28;20206;-67
2021/07/30 05:37:28;;;;;;;2.67;2.47;;;;;;;22.89;100.00;97168.53;5018147;28;20296;-68
2021/07/30 05:39:54;;;;;;;2.07;1.97;;;;;;;22.88;100.00;97159.97;5012482;28;20228;-65
2021/07/30 05:42:21;;;;;;;2.40;2.20;;;;;;;22.88;100.00;97152.28;5015054;28;20257;-69
2021/07/30 05:44:48;;;;;;;2.60;2.40;;;;;;;22.88;100.00;97151.41;5016005;28;20701;-66
2021/07/30 05:47:14;;;;;;;2.30;2.20;;;;;;;22.88;100.00;97154.84;5016042;28;20817;-64
2021/07/30 05:49:41;;;;;;;2.23;2.13;;;;;;;22.88;100.00;97142.03;5011407;28;20253;-68
2021/07/30 05:52:07;;;;;;;2.30;2.10;;;;;;;22.88;100.00;97144.59;5016268;28;20317;-67
2021/07/30 05:54:35;;;;;;;2.60;2.40;;;;;;;22.88;100.00;97154.84;5016787;28;20205;-68
2021/07/30 05:57:02;;;;;;;3.07;2.40;;;;;;;22.88;100.00;97149.72;5019984;28;20640;-67
2021/07/30 05:59:28;;;;;;;2.33;2.13;;;;;;;22.89;100.00;97148.03;5015903;28;20297;-68
2021/07/30 06:01:55;;;;;;;2.47;2.27;;;;;;;22.88;100.00;97144.59;5016448;28;20222;-66
2021/07/30 06:04:22;;;;;;;2.43;2.23;;;;;;;22.88;100.00;97142.03;5018720;28;20206;-69
2021/07/30 06:06:48;;;;;;;2.80;2.23;;;;;;;22.89;100.00;97135.22;5014680;28;20824;-67
2021/07/30 06:09:15;;;;;;;2.30;2.10;;;;;;;22.90;100.00;97139.50;5016689;28;20284;-68
2021/07/30 06:11:41;;;;;;;2.20;2.00;;;;;;;22.90;100.00;97139.50;5008451;28;20312;-69
2021/07/30 06:14:08;;;;;;;2.50;2.30;;;;;;;22.90;100.00;97142.06;5009884;28;20202;-68
2021/07/30 06:16:35;;;;;;;2.37;2.20;;;;;;;22.90;100.00;97139.50;5019462;28;20202;-67
2021/07/30 06:19:04;;;;;;;2.53;2.33;;;;;;;22.89;100.00;97143.75;5016901;28;20629;-70
2021/07/30 06:21:32;;;;;;;3.37;2.10;;;;;;;22.90;100.00;97134.38;5012770;28;20222;-70
2021/07/30 06:24:00;;;;;;;2.53;2.33;;;;;;;22.90;100.00;97139.50;5006165;28;20568;-69
2021/07/30 06:26:27;;;;;;;2.50;2.30;;;;;;;22.90;100.00;97139.50;5009125;28;20280;-69
2021/07/30 06:28:54;;;;;;;2.60;2.40;;;;;;;22.89;100.00;97148.88;5003937;28;20754;-68
2021/07/30 06:31:20;;;;;;;3.67;2.40;;;;;;;22.89;100.00;97145.47;5005530;28;20233;-70
2021/07/30 06:33:47;;;;;;;3.43;2.30;;;;;;;22.90;100.00;97147.19;5009279;28;20202;-68
2021/07/30 06:36:17;;;;;;;2.97;2.27;;;;;;;22.89;100.00;97151.44;5008760;28;20297;-69
2021/07/30 06:38:43;;;;;;;2.27;2.17;;;;;;;22.90;100.00;97142.06;5005688;28;20207;-68
2021/07/30 06:41:15;;;;;;;3.53;2.27;;;;;;;22.89;100.00;97143.75;5010960;28;20292;-69
2021/07/30 06:43:42;;;;;;;2.93;2.73;;;;;;;22.89;100.00;97148.88;5011005;28;20237;-70
2021/07/30 06:46:08;;;;;;;2.43;2.27;;;;;;;22.89;100.00;97148.03;5008691;28;20710;-70
2021/07/30 06:48:35;;;;;;;2.60;2.40;;;;;;;22.89;100.00;97148.88;5010997;28;20201;-70
2021/07/30 06:51:02;;;;;;;2.80;2.30;;;;;;;22.90;100.00;97153.19;5010776;28;20794;-69
2021/07/30 06:53:28;;;;;;;2.53;2.30;;;;;;;22.90;100.00;97149.75;5013102;28;20325;-69
2021/07/30 06:55:55;;;;;;;2.90;2.43;;;;;;;22.90;100.00;97152.31;5009920;28;20645;-68
2021/07/30 06:58:21;;;;;;;2.93;2.60;;;;;;;22.90;100.00;97154.88;5014324;28;20442;-68
2021/07/30 07:00:48;;;;;;;2.63;2.43;;;;;;;22.90;100.00;97157.44;5007368;28;20284;-68
2021/07/30 07:03:15;;;;;;;2.60;2.40;;;;;;;22.90;100.00;97154.88;5002868;28;20293;-69
2021/07/30 07:05:42;;;;;;;3.07;2.60;;;;;;;22.89;100.00;97159.13;5011930;28;20213;-69
2021/07/30 07:08:08;;;;;;;2.47;2.27;;;;;;;22.89;100.00;97160.84;5011963;28;20230;-68
2021/07/30 07:10:35;;;;;;;2.70;2.50;;;;;;;22.89;100.00;97154.00;5012821;28;20711;-68
2021/07/30 07:13:01;;;;;;;2.50;2.30;;;;;;;22.89;100.00;97150.59;5004794;28;20917;-70
2021/07/30 07:15:28;;;;;;;2.60;2.40;;;;;;;22.90;100.00;97160.00;5010594;28;20621;-69
2021/07/30 07:17:54;;;;;;;6.13;2.53;;;;;;;22.88;100.00;97149.72;5011508;28;20280;-66
2021/07/30 07:20:21;;;;;;;3.10;2.80;;;;;;;22.89;100.00;97138.63;5008648;28;20257;-70
2021/07/30 07:22:48;;;;;;;2.30;2.10;;;;;;;22.88;100.00;97144.59;5008706;28;20523;-69
2021/07/30 07:25:14;;;;;;;4.13;2.50;;;;;;;22.89;100.00;97142.91;5009550;28;20717;-66
2021/07/30 07:27:41;;;;;;;2.57;2.37;;;;;;;22.52;100.00;97074.78;5003744;28;20206;-69
2021/07/30 07:30:08;;;;;;;2.73;2.53;;;;;;;22.85;100.00;97134.28;4991419;28;20365;-69
2021/07/30 07:32:34;;;;;;;2.50;2.30;;;;;;;22.89;100.00;97138.63;5003696;28;20261;-65
2021/07/30 07:35:02;;;;;;;2.90;2.40;;;;;;;22.89;100.00;97142.91;5001047;28;20293;-70
2021/07/30 07:37:29;;;;;;;2.57;2.37;;;;;;;22.89;100.00;97137.78;5012261;28;20234;-70
2021/07/30 07:39:55;;;;;;;2.87;2.67;;;;;;;22.89;100.00;97133.50;5008456;28;20253;-69
2021/07/30 07:42:22;;;;;;;2.73;2.53;;;;;;;22.89;100.00;97137.78;5007414;28;20254;-69
2021/07/30 07:44:50;;;;;;;2.60;2.40;;;;;;;22.89;100.00;97135.22;5013894;28;20236;-69
2021/07/30 07:47:16;;;;;;;2.83;2.30;;;;;;;22.89;100.00;97133.50;5000890;28;20634;-68
2021/07/30 07:49:43;;;;;;;2.43;2.23;;;;;;;22.89;100.00;97136.06;5003100;28;20202;-68
2021/07/30 07:52:10;;;;;;;2.70;2.50;;;;;;;22.88;100.00;97139.47;5002255;28;20254;-70
2021/07/30 07:54:56;;;;;;;2.63;2.43;;;;;;;22.89;100.00;97137.78;5012557;28;20211;-69
2021/07/30 07:57:23;;;;;;;2.47;2.27;;;;;;;22.89;100.00;97124.97;5008341;28;20742;-68
2021/07/30 07:59:49;;;;;;;2.73;2.53;;;;;;;22.88;100.00;97129.22;5009446;28;20203;-68
2021/07/30 08:02:16;;;;;;;2.80;2.60;;;;;;;22.89;100.00;97128.38;5008840;28;20222;-70
2021/07/30 08:04:43;;;;;;;2.50;2.30;;;;;;;22.89;100.00;97133.50;5006364;28;20676;-67
2021/07/30 08:07:11;;;;;;;2.50;2.30;;;;;;;22.89;100.00;97130.94;5011224;28;20619;-68
2021/07/30 08:09:38;;;;;;;2.47;2.30;;;;;;;22.88;100.00;97126.66;5014275;28;20205;-68
2021/07/30 08:12:05;;;;;;;2.87;2.37;;;;;;;22.76;100.00;97102.50;5032275;22;20663;-71
2021/07/30 08:14:31;;;;;;;2.57;2.37;;;;;;;22.85;100.00;97118.06;4984059;28;20704;-72
2021/07/30 08:16:58;;;;;;;2.67;2.47;;;;;;;22.88;100.00;97124.09;4971970;28;20730;-71
2021/07/30 08:19:24;;;;;;;2.70;2.50;;;;;;;22.81;100.00;97106.03;4993301;28;20203;-70
2021/07/30 08:21:51;;;;;;;3.13;2.83;;;;;;;22.44;100.00;97047.28;4990369;28;20227;-72
2021/07/30 08:24:18;;;;;;;2.83;2.53;;;;;;;22.80;100.00;97102.59;4987113;28;20234;-74
2021/07/30 08:26:44;;;;;;;2.60;2.40;;;;;;;22.89;100.00;97125.81;4998214;28;20206;-70
2021/07/30 08:29:11;;;;;;;2.40;2.20;;;;;;;22.89;100.00;97122.41;4993820;28;20241;-76
2021/07/30 08:31:37;;;;;;;2.73;2.43;;;;;;;22.88;100.00;97113.84;4995993;28;20751;-70
2021/07/30 08:34:04;;;;;;;2.60;2.40;;;;;;;22.76;100.00;97097.38;4997368;28;20681;-73
2021/07/30 08:36:31;;;;;;;2.47;2.27;;;;;;;22.68;100.00;97083.59;4988548;28;20288;-73
2021/07/30 08:38:57;;;;;;;2.60;2.40;;;;;;;22.89;100.00;97117.28;4993701;28;20256;-70
2021/07/30 08:41:24;;;;;;;2.50;2.30;;;;;;;22.89;100.00;97119.84;4995554;28;20639;-70
2021/07/30 08:43:52;;;;;;;2.60;2.40;;;;;;;22.87;100.00;97114.69;4996009;28;20273;-75
2021/07/30 08:46:25;;;;;;;2.53;2.33;;;;;;;22.84;100.00;97108.66;4989629;28;20199;-73
2021/07/30 08:48:53;;;;;;;2.30;2.20;;;;;;;22.91;100.00;97121.59;4977480;28;20207;-69
2021/07/30 08:51:20;;;;;;;11.33;2.70;;;;;;;22.85;100.00;97110.38;4994027;28;20219;-71
2021/07/30 08:53:47;;;;;;;2.60;2.40;;;;;;;22.86;100.00;97106.97;4958276;28;20237;-70
2021/07/30 08:56:14;;;;;;;6.90;2.70;;;;;;;22.92;100.00;97123.31;4992028;28;20491;-75
2021/07/30 08:58:40;;;;;;;2.57;2.37;;;;;;;22.81;100.00;97099.22;4996959;28;20687;-70
2021/07/30 09:01:07;;;;;;;2.70;2.43;;;;;;;22.92;100.00;97123.31;4974479;28;20230;-71
2021/07/30 09:03:44;;;;;;;2.60;2.40;;;;;;;22.81;100.00;97096.66;4990121;28;20615;-74
2021/07/30 09:06:18;;;;;;;2.27;2.07;;;;;;;22.94;100.00;97106.28;4966731;28;20233;-75
2021/07/30 09:09:07;;;;;;;3.10;2.80;;;;;;;22.95;100.00;97104.59;4981369;28;20203;-73
2021/07/30 09:11:39;;;;;;;2.53;2.33;;;;;;;22.96;100.00;97098.59;4992118;28;20231;-72
2021/07/30 09:14:10;;;;;;;2.70;2.50;;;;;;;22.95;100.00;97100.28;4977678;28;20720;-71
2021/07/30 09:16:53;;;;;;;2.90;2.37;;;;;;;22.89;100.00;97083.97;4983986;28;20234;-73
2021/07/30 09:19:22;;;;;;;2.50;2.30;;;;;;;22.98;100.00;97095.22;4984752;28;20217;-77
2021/07/30 09:22:05;;;;;;;2.60;2.40;;;;;;;22.98;100.00;97099.50;4979926;28;20287;-74
2021/07/30 09:24:41;;;;;;;2.50;2.30;;;;;;;22.83;100.00;97064.22;4982642;28;20253;-74
2021/07/30 09:27:12;;;;;;;2.63;2.43;;;;;;;22.88;100.00;97071.97;4984711;28;20206;-71
2021/07/30 09:29:39;;;;;;;3.17;2.30;;;;;;;22.66;100.00;97034.03;4984735;28;20230;-71
2021/07/30 09:32:11;;;;;;;2.57;2.37;;;;;;;22.91;100.00;97072.03;4967078;28;20552;-74
2021/07/30 09:34:41;;;;;;;2.70;2.50;;;;;;;22.99;100.00;97080.72;4980667;28;20620;-74
2021/07/30 09:37:12;;;;;;;2.53;2.23;;;;;;;22.72;100.00;97029.03;4977938;28;20226;-76
2021/07/30 09:39:43;;;;;;;2.60;2.40;;;;;;;22.57;100.00;96998.03;4962640;28;20323;-76
2021/07/30 09:42:18;;;;;;;2.73;2.53;;;;;;;22.90;100.00;97053.25;4959796;28;20229;-71
2021/07/30 09:44:52;;;;;;;2.90;2.33;;;;;;;22.95;100.00;97064.41;4987206;28;20646;-71
2021/07/30 09:47:22;;;;;;;2.67;2.47;;;;;;;23.00;100.00;97065.38;4985333;28;20211;-72
2021/07/30 09:49:50;;;;;;;2.73;2.53;;;;;;;22.99;100.00;97055.97;4985601;28;20199;-76
2021/07/30 09:52:18;;;;;;;3.70;2.50;;;;;;;23.01;100.00;97068.81;4985328;28;20226;-73
2021/07/30 09:54:58;;;;;;;4.10;2.60;;;;;;;23.00;100.00;97062.81;4984757;28;20246;-71
2021/07/30 09:57:29;;;;;;;2.63;2.43;;;;;;;23.00;100.00;97060.25;4985509;28;20822;-68
2021/07/30 09:59:58;;;;;;;3.27;2.50;;;;;;;23.00;100.00;97057.69;4980441;28;20238;-74
2021/07/30 10:02:29;;;;;;;2.50;2.30;;;;;;;22.88;100.00;97031.84;4987619;28;20716;-68
2021/07/30 10:04:57;;;;;;;4.37;2.50;;;;;;;23.03;100.00;97059.41;4992790;28;20623;-73
2021/07/30 10:07:25;;;;;;;2.57;2.37;;;;;;;23.01;100.00;97050.88;4994541;28;20215;-72
2021/07/30 10:10:14;;;;;;;2.67;2.47;;;;;;;22.93;100.00;97027.69;4976408;28;20266;-70
2021/07/30 10:12:50;;;;;;;2.97;2.30;;;;;;;22.99;100.00;97040.59;4992936;28;20225;-72
2021/07/30 10:15:17;;;;;;;4.97;2.40;;;;;;;23.03;100.00;97042.34;4992421;28;20194;-74
2021/07/30 10:17:48;;;;;;;2.73;2.53;;;;;;;23.04;100.00;97035.53;4992774;28;20206;-73
2021/07/30 10:20:17;;;;;;;4.50;2.47;;;;;;;23.04;100.00;97032.97;5010324;28;20261;-69
2021/07/30 10:23:07;;;;;;;2.50;2.30;;;;;;;23.02;100.00;97035.50;4996019;28;20700;-73
2021/07/30 10:25:34;;;;;;;3.60;2.40;;;;;;;23.03;100.00;97033.78;4994662;28;20474;-72
2021/07/30 10:28:05;;;;;;;2.60;2.40;;;;;;;22.71;100.00;96976.06;4977271;28;20881;-72
2021/07/30 10:30:54;;;;;;;2.70;2.50;;;;;;;23.03;100.00;97024.41;4982436;28;20261;-72
2021/07/30 10:33:30;;;;;;;2.50;2.30;;;;;;;23.02;100.00;97019.25;4982923;28;20243;-73
2021/07/30 10:35:57;;;;;;;3.00;2.70;;;;;;;22.95;100.00;97008.03;4987383;28;20193;-71
2021/07/30 10:38:24;;;;;;;2.60;2.40;;;;;;;23.04;100.00;97020.16;4988138;28;20239;-71
2021/07/30 10:41:09;;;;;;;2.43;2.20;;;;;;;23.05;100.00;97016.75;4994214;28;20225;-73
2021/07/30 10:44:02;;;;;;;2.70;2.50;;;;;;;23.04;100.00;97020.16;4994313;28;20308;-70
2021/07/30 10:46:28;;;;;;;2.87;2.67;;;;;;;22.97;100.00;97001.25;4996125;28;20237;-73
2021/07/30 10:48:55;;;;;;;3.20;2.63;;;;;;;23.04;100.00;97004.78;4993294;28;20511;-68
2021/07/30 10:51:25;;;;;;;2.70;2.50;;;;;;;23.05;100.00;97006.50;4990982;28;20230;-70
2021/07/30 10:54:04;;;;;;;2.93;2.73;;;;;;;23.05;100.00;97009.06;4987272;28;20260;-70
2021/07/30 10:56:30;;;;;;;2.60;2.40;;;;;;;23.05;100.00;96988.56;4977095;28;20719;-76
2021/07/30 10:59:01;;;;;;;2.63;2.37;;;;;;;23.05;100.00;97004.81;4983131;28;20294;-72
2021/07/30 11:01:27;;;;;;;2.83;2.47;;;;;;;23.04;100.00;96985.13;4975678;28;20270;-70
2021/07/30 11:04:08;;;;;;;2.67;2.47;;;;;;;22.94;100.00;96972.13;4987283;28;20223;-67
2021/07/30 11:06:40;;;;;;;2.70;2.50;;;;;;;23.04;100.00;96987.69;4974266;28;20260;-71
2021/07/30 11:09:06;;;;;;;2.80;2.30;;;;;;;23.05;100.00;96978.31;4986362;28;20238;-74
2021/07/30 11:11:42;;;;;;;2.63;2.43;;;;;;;22.79;100.00;96943.72;4988494;28;20226;-70
2021/07/30 11:14:21;;;;;;;2.60;2.40;;;;;;;22.97;100.00;96973.06;4981050;28;20272;-71
2021/07/30 11:17:03;;;;;;;2.57;2.37;;;;;;;22.79;100.00;96936.91;4979680;28;20212;-71
2021/07/30 11:19:40;;;;;;;2.50;2.30;;;;;;;22.93;100.00;96965.31;4977444;28;20210;-71
2021/07/30 11:22:18;;;;;;;3.67;2.20;;;;;;;22.96;100.00;96963.66;4952220;28;20281;-71
2021/07/30 11:24:49;;;;;;;2.63;2.43;;;;;;;22.93;100.00;96955.94;4981763;28;20202;-80
2021/07/30 11:27:17;;;;;;;2.73;2.23;;;;;;;22.97;100.00;96959.38;4978002;28;20239;-70
2021/07/30 11:29:48;;;;;;;2.80;2.60;;;;;;;23.06;100.00;96970.63;4982754;28;20231;-74
2021/07/30 11:32:16;;;;;;;2.57;2.37;;;;;;;22.96;100.00;96962.78;4979874;28;20237;-71